Pagina principală
METAR-TAF:

METAR-TAF

Aeroporturi :

Cúcuta, Columbia

Latitudine: 07-56N, longitudine: 072-31W, elevație: 250 m

Observații meteo curente

Raportul a fost făcut în urmă cu 58 de minute, la 03:00 UTC
Vânt 9 kt de la Sud
Temperatură 28°C
Umiditate 58%
Presiune 1017 hPa
Vizibilitate de 10 km sau mai mult
Nori puțini la o înălțime de 2300 picior

METAR: SKCC 140300Z 18009KT 9999 FEW023 28/19 Q1017

Ora: 22:58 (03:58 UTC)

Prognoză

Raportul a fost făcut în urmă cu 5 ore și 28 de minute, la 22:30 UTC
Prognoză valabilă de la 14 ora 00 UTC la 14 ora 24 UTC
Vânt 14 kt de la Sud
Vizibilitate de 10 km sau mai mult
Nori împrăștiați la o înălțime de 2000 picior
Devenind
de la 14 ora 02 UTC la 14 ora 04 UTC
Vânt 2 kt din direcții variabile

TAF: SKCC 132230Z 1400/1424 17014KT 9999 SCT020 BECMG 1402/1404 VRB02KT TX35/1419Z TN25/1411Z

Observații și prognoze meteo pentru peste 4.000 de aeroporturi (rapoarte METAR și TAF).

Stațiile disponibile sunt reprezentate pe hartă prin puncte galbene și roșii.

Țineți indicatorul mouse-ului pe punctul dorit pentru a vedea denumirea stației.

Apoi, faceți clic pentru a vedea observațiile și prognozele meteorologice.

Pentru a schimba harta: Pentru mărire, faceți clic pe butoanele verzi cu cruce neagră; pentru micșorare, pe butonul verde cu o liniuță; pentru hărți învecinate, pe săgețile verzi.


METAR-TAF: